Time;durP1;ratioP1;P1;durP2;ratioP2;P2;SDS_P1;SDS_P2;PMS_P1;PMS_P2;Temp;Humidity;BMP_temperature;BMP_pressure;BME280_temperature;BME280_humidity;BME280_pressure;Samples;Min_cycle;Max_cycle;Signal;HPM_P1;HPM_P2
2023/09/14 00:00:14;;;;;;;0.00;0.00;;;17.00;99.90;;;;;;5051081;28;20280;-66
2023/09/14 00:02:40;;;;;;;0.00;0.00;;;17.00;99.90;;;;;;5050622;28;20189;-67
2023/09/14 00:05:06;;;;;;;0.00;0.00;;;16.90;99.90;;;;;;5050748;28;20208;-66
2023/09/14 00:07:32;;;;;;;0.25;0.25;;;16.90;99.90;;;;;;5050938;28;20194;-67
2023/09/14 00:09:58;;;;;;;0.00;0.00;;;16.90;99.90;;;;;;5050800;28;20641;-67
2023/09/14 00:12:24;;;;;;;0.00;0.00;;;16.90;99.90;;;;;;5050838;28;20601;-67
2023/09/14 00:14:50;;;;;;;0.00;0.00;;;16.80;99.90;;;;;;5050536;28;20200;-66
2023/09/14 00:17:15;;;;;;;0.00;0.00;;;16.80;99.90;;;;;;5050788;28;20177;-67
2023/09/14 00:19:41;;;;;;;0.00;0.00;;;16.80;99.90;;;;;;5050659;28;20698;-67
2023/09/14 00:22:06;;;;;;;0.00;0.00;;;16.80;99.90;;;;;;5050946;28;20181;-67
2023/09/14 00:24:32;;;;;;;0.00;0.00;;;16.70;99.90;;;;;;5050810;28;20216;-67
2023/09/14 00:26:57;;;;;;;0.00;0.00;;;16.70;99.90;;;;;;5050817;28;20282;-66
2023/09/14 00:29:23;;;;;;;0.00;0.00;;;16.70;99.90;;;;;;5050730;28;20181;-67
2023/09/14 00:31:48;;;;;;;0.00;0.00;;;16.60;99.90;;;;;;5049203;28;20225;-67
2023/09/14 00:34:14;;;;;;;0.00;0.00;;;16.60;99.90;;;;;;5050665;28;20189;-67
2023/09/14 00:36:39;;;;;;;0.00;0.00;;;16.60;99.90;;;;;;5049231;28;20653;-66
2023/09/14 00:39:08;;;;;;;0.00;0.00;;;16.60;99.90;;;;;;5050182;28;20185;-67
2023/09/14 00:41:33;;;;;;;0.00;0.00;;;16.60;99.90;;;;;;5049240;28;20192;-67
2023/09/14 00:43:59;;;;;;;0.00;0.00;;;16.60;99.90;;;;;;5050744;28;20181;-67
2023/09/14 00:46:24;;;;;;;0.00;0.00;;;16.50;99.90;;;;;;5050382;28;20213;-67
2023/09/14 00:48:50;;;;;;;0.00;0.00;;;16.50;99.90;;;;;;5050272;28;20177;-67
2023/09/14 00:51:16;;;;;;;0.00;0.00;;;16.50;99.90;;;;;;5050840;28;20636;-67
2023/09/14 00:53:43;;;;;;;0.00;0.00;;;16.50;99.90;;;;;;5054704;28;20173;-67
2023/09/14 00:56:10;;;;;;;0.00;0.00;;;16.50;99.90;;;;;;5054606;28;20685;-67
2023/09/14 00:58:37;;;;;;;0.00;0.00;;;16.50;99.90;;;;;;5054881;28;20239;-67
2023/09/14 01:01:03;;;;;;;0.00;0.00;;;16.50;99.90;;;;;;5054546;28;20535;-67
2023/09/14 01:03:30;;;;;;;0.00;0.00;;;16.40;99.90;;;;;;5054517;28;20169;-66
2023/09/14 01:05:55;;;;;;;0.00;0.00;;;16.40;99.90;;;;;;5054382;28;20217;-67
2023/09/14 01:08:21;;;;;;;0.00;0.00;;;16.40;99.90;;;;;;5054391;28;20197;-67
2023/09/14 01:10:46;;;;;;;0.00;0.00;;;16.40;99.90;;;;;;5054114;28;20201;-66
2023/09/14 01:13:29;;;;;;;0.00;0.00;;;16.40;99.90;;;;;;5054115;28;20177;-66
2023/09/14 01:16:03;;;;;;;0.00;0.00;;;16.30;99.90;;;;;;5053674;28;20169;-66
2023/09/14 01:18:54;;;;;;;0.00;0.00;;;16.30;99.90;;;;;;5054189;28;20264;-66
2023/09/14 01:21:35;;;;;;;0.00;0.00;;;16.30;99.90;;;;;;5054335;28;20682;-66
2023/09/14 01:24:17;;;;;;;0.00;0.00;;;16.20;99.90;;;;;;5053991;28;20186;-67
2023/09/14 01:26:43;;;;;;;0.00;0.00;;;16.20;99.90;;;;;;5050786;28;20680;-66
2023/09/14 01:29:09;;;;;;;0.00;0.00;;;16.20;99.90;;;;;;5054344;28;20721;-67
2023/09/14 01:31:35;;;;;;;0.00;0.00;;;16.20;99.90;;;;;;5054028;28;20761;-67
2023/09/14 01:34:00;;;;;;;0.00;0.00;;;16.20;99.90;;;;;;5053915;28;20213;-67
2023/09/14 01:36:42;;;;;;;0.00;0.00;;;16.10;99.90;;;;;;5054791;28;20177;-66
2023/09/14 01:39:10;;;;;;;0.00;0.00;;;16.10;99.90;;;;;;5053516;28;20177;-67
2023/09/14 01:41:36;;;;;;;0.00;0.00;;;16.10;99.90;;;;;;5052665;28;20177;-67
2023/09/14 01:44:03;;;;;;;0.00;0.00;;;16.00;99.90;;;;;;5053580;28;20260;-66
2023/09/14 01:46:30;;;;;;;0.00;0.00;;;16.00;99.90;;;;;;5053501;28;20225;-65
2023/09/14 01:48:55;;;;;;;0.00;0.00;;;16.00;99.90;;;;;;5053461;28;20188;-66
2023/09/14 01:51:21;;;;;;;0.00;0.00;;;16.00;99.90;;;;;;5053664;28;20185;-66
2023/09/14 01:53:46;;;;;;;0.00;0.00;;;16.00;99.90;;;;;;5053482;28;20181;-66
2023/09/14 01:56:12;;;;;;;0.00;0.00;;;15.90;99.90;;;;;;5052190;28;20246;-66
2023/09/14 01:58:37;;;;;;;0.00;0.00;;;15.90;99.90;;;;;;5053591;28;20177;-66
2023/09/14 02:01:03;;;;;;;0.00;0.00;;;15.90;99.90;;;;;;5052728;28;20573;-66
2023/09/14 02:03:28;;;;;;;0.00;0.00;;;15.90;99.90;;;;;;5052939;28;20181;-66
2023/09/14 02:06:01;;;;;;;0.10;0.10;;;15.90;99.90;;;;;;5053060;28;20578;-66
2023/09/14 02:08:27;;;;;;;0.00;0.00;;;15.90;99.90;;;;;;5053171;28;20648;-66
2023/09/14 02:10:52;;;;;;;0.00;0.00;;;15.90;99.90;;;;;;5052599;28;20280;-66
2023/09/14 02:13:18;;;;;;;0.00;0.00;;;15.80;99.90;;;;;;5053334;28;20169;-67
2023/09/14 02:15:43;;;;;;;0.00;0.00;;;15.80;99.90;;;;;;5053070;28;20193;-66
2023/09/14 02:18:09;;;;;;;0.00;0.00;;;15.80;99.90;;;;;;5052985;28;20693;-66
2023/09/14 02:20:35;;;;;;;0.00;0.00;;;15.90;99.90;;;;;;5053197;28;20193;-67
2023/09/14 02:23:02;;;;;;;0.00;0.00;;;15.80;99.90;;;;;;5052746;28;20320;-67
2023/09/14 02:25:27;;;;;;;0.00;0.00;;;15.80;99.90;;;;;;5051657;28;20700;-67
2023/09/14 02:27:53;;;;;;;0.00;0.00;;;15.80;99.90;;;;;;5052762;28;20188;-67
2023/09/14 02:30:19;;;;;;;0.00;0.00;;;15.80;99.90;;;;;;5052713;28;20227;-67
2023/09/14 02:32:44;;;;;;;0.00;0.00;;;15.70;99.90;;;;;;5052589;28;20225;-67
2023/09/14 02:35:10;;;;;;;0.00;0.00;;;15.60;99.90;;;;;;5052550;28;20185;-66
2023/09/14 02:37:35;;;;;;;0.00;0.00;;;15.60;99.90;;;;;;5052870;28;20268;-67
2023/09/14 02:40:01;;;;;;;0.00;0.00;;;15.60;99.90;;;;;;5052676;28;20182;-67
2023/09/14 02:42:26;;;;;;;0.00;0.00;;;15.70;99.90;;;;;;5051306;28;20243;-66
2023/09/14 02:44:52;;;;;;;0.00;0.00;;;15.70;99.90;;;;;;5052581;28;20203;-67
2023/09/14 02:47:17;;;;;;;0.00;0.00;;;15.70;99.90;;;;;;5052528;28;20641;-67
2023/09/14 02:49:43;;;;;;;0.03;0.03;;;15.70;99.90;;;;;;5051409;28;20177;-66
2023/09/14 02:52:09;;;;;;;0.00;0.00;;;15.70;99.90;;;;;;5052565;28;20177;-67
2023/09/14 02:54:34;;;;;;;0.10;0.08;;;15.70;99.90;;;;;;5052549;28;20288;-67
2023/09/14 02:57:00;;;;;;;0.00;0.00;;;15.70;99.90;;;;;;5052284;28;20221;-67
2023/09/14 02:59:25;;;;;;;0.00;0.00;;;15.70;99.90;;;;;;5052400;28;20173;-67
2023/09/14 03:01:51;;;;;;;0.00;0.00;;;15.70;99.90;;;;;;5052522;28;20238;-67
2023/09/14 03:04:16;;;;;;;0.00;0.00;;;15.70;99.90;;;;;;5051981;28;20177;-67
2023/09/14 03:06:42;;;;;;;0.00;0.00;;;15.70;99.90;;;;;;5051953;28;20296;-67
2023/09/14 03:09:07;;;;;;;0.00;0.00;;;15.60;99.90;;;;;;5050006;28;20529;-67
2023/09/14 03:11:33;;;;;;;0.00;0.00;;;15.60;99.90;;;;;;5052219;28;20192;-67
2023/09/14 03:13:58;;;;;;;0.00;0.00;;;15.60;99.90;;;;;;5051361;28;20178;-67
2023/09/14 03:16:24;;;;;;;0.00;0.00;;;15.60;99.90;;;;;;5051438;28;20519;-67
2023/09/14 03:18:49;;;;;;;0.00;0.00;;;15.50;99.90;;;;;;5051754;28;20714;-67
2023/09/14 03:21:26;;;;;;;0.00;0.00;;;15.50;99.90;;;;;;5051624;28;20529;-67
2023/09/14 03:23:52;;;;;;;0.00;0.00;;;15.40;99.90;;;;;;5050233;28;20188;-67
2023/09/14 03:26:18;;;;;;;0.00;0.00;;;15.40;99.90;;;;;;5050871;28;20297;-67
2023/09/14 03:28:44;;;;;;;0.00;0.00;;;15.40;99.90;;;;;;5051780;28;20211;-68
2023/09/14 03:31:09;;;;;;;0.00;0.00;;;15.40;99.90;;;;;;5051244;28;20221;-67
2023/09/14 03:33:35;;;;;;;0.00;0.00;;;15.30;99.90;;;;;;5046927;28;20185;-66
2023/09/14 03:36:01;;;;;;;0.00;0.00;;;15.30;99.90;;;;;;5031744;28;20171;-65
2023/09/14 03:38:28;;;;;;;0.00;0.00;;;15.30;99.90;;;;;;5031798;28;20183;-66
2023/09/14 03:40:54;;;;;;;0.00;0.00;;;15.20;99.90;;;;;;5042600;28;20185;-66
2023/09/14 03:43:20;;;;;;;0.00;0.00;;;15.20;99.90;;;;;;5051831;28;20648;-66
2023/09/14 03:45:46;;;;;;;0.13;0.13;;;15.20;99.90;;;;;;5051529;28;20213;-66
2023/09/14 03:48:12;;;;;;;0.00;0.00;;;15.20;99.90;;;;;;5051389;28;20192;-66
2023/09/14 03:50:38;;;;;;;0.00;0.00;;;15.10;99.90;;;;;;5047641;28;20194;-70
2023/09/14 03:53:04;;;;;;;0.00;0.00;;;15.10;99.90;;;;;;5051220;28;20201;-72
2023/09/14 03:55:30;;;;;;;0.00;0.00;;;15.10;99.90;;;;;;5051255;28;20176;-70
2023/09/14 03:57:55;;;;;;;0.00;0.00;;;15.00;99.90;;;;;;5051355;28;20182;-65
2023/09/14 04:00:21;;;;;;;0.00;0.00;;;15.00;99.90;;;;;;5051554;28;20738;-67
2023/09/14 04:02:47;;;;;;;0.00;0.00;;;15.00;99.90;;;;;;5051351;28;20528;-65
2023/09/14 04:05:14;;;;;;;0.00;0.00;;;15.00;99.90;;;;;;5051115;28;20258;-67
2023/09/14 04:07:40;;;;;;;0.00;0.00;;;15.00;99.90;;;;;;5050684;28;20263;-68
2023/09/14 04:10:09;;;;;;;0.00;0.00;;;15.00;99.90;;;;;;5050846;28;20645;-70
2023/09/14 04:12:37;;;;;;;0.00;0.00;;;14.90;99.90;;;;;;5049896;28;20653;-69
2023/09/14 04:15:03;;;;;;;0.00;0.00;;;14.90;99.90;;;;;;5051141;28;20188;-78
2023/09/14 04:17:29;;;;;;;0.00;0.00;;;14.90;99.90;;;;;;5050253;28;20177;-74
2023/09/14 04:19:54;;;;;;;0.00;0.00;;;14.90;99.90;;;;;;5048506;28;20272;-74
2023/09/14 04:22:20;;;;;;;0.00;0.00;;;14.80;99.90;;;;;;5050263;28;20205;-74
2023/09/14 04:24:45;;;;;;;0.00;0.00;;;14.80;99.90;;;;;;5050446;28;20185;-74
2023/09/14 04:27:11;;;;;;;0.00;0.00;;;14.80;99.90;;;;;;5050863;28;20189;-73
2023/09/14 04:29:36;;;;;;;0.00;0.00;;;14.80;99.90;;;;;;5051039;28;20185;-74
2023/09/14 04:32:03;;;;;;;0.00;0.00;;;14.80;99.90;;;;;;5051048;28;20225;-74
2023/09/14 04:34:28;;;;;;;0.00;0.00;;;14.70;99.90;;;;;;5051398;28;20307;-73
2023/09/14 04:36:54;;;;;;;0.00;0.00;;;14.60;99.90;;;;;;5051064;28;20207;-75
2023/09/14 04:39:19;;;;;;;0.00;0.00;;;14.60;99.90;;;;;;5051240;28;20177;-74
2023/09/14 04:41:45;;;;;;;0.00;0.00;;;14.60;99.90;;;;;;5051302;28;20260;-73
2023/09/14 04:44:11;;;;;;;0.00;0.00;;;14.60;99.90;;;;;;5051168;28;20671;-72
2023/09/14 04:46:36;;;;;;;0.00;0.00;;;14.60;99.90;;;;;;5051122;28;20616;-73
2023/09/14 04:49:02;;;;;;;0.00;0.00;;;14.60;99.90;;;;;;5051073;28;20273;-74
2023/09/14 04:51:27;;;;;;;0.00;0.00;;;14.60;99.90;;;;;;5051150;28;20181;-74
2023/09/14 04:53:53;;;;;;;0.00;0.00;;;14.50;99.90;;;;;;5051056;28;20178;-74
2023/09/14 04:56:22;;;;;;;0.00;0.00;;;14.60;99.90;;;;;;5051190;28;20173;-74
2023/09/14 04:58:47;;;;;;;0.00;0.00;;;14.60;99.90;;;;;;5051121;28;20173;-73
2023/09/14 05:01:13;;;;;;;0.00;0.00;;;14.60;99.90;;;;;;5050887;28;20184;-73
2023/09/14 05:03:40;;;;;;;0.00;0.00;;;14.60;99.90;;;;;;5049840;28;20180;-72
2023/09/14 05:06:06;;;;;;;0.00;0.00;;;14.70;99.90;;;;;;5050841;28;20209;-73
2023/09/14 05:08:31;;;;;;;0.00;0.00;;;14.60;99.90;;;;;;5050976;28;20189;-73
2023/09/14 05:10:58;;;;;;;0.00;0.00;;;14.60;99.90;;;;;;5050860;28;20268;-73
2023/09/14 05:13:24;;;;;;;0.00;0.00;;;14.70;99.90;;;;;;5051261;28;20181;-74
2023/09/14 05:15:50;;;;;;;0.00;0.00;;;14.70;99.90;;;;;;5051251;28;20181;-73
2023/09/14 05:18:16;;;;;;;0.00;0.00;;;14.70;99.90;;;;;;5050859;28;20177;-74
2023/09/14 05:20:43;;;;;;;0.00;0.00;;;14.70;99.90;;;;;;5050878;28;20169;-73
2023/09/14 05:23:09;;;;;;;0.00;0.00;;;14.80;99.90;;;;;;5050844;28;20588;-73
2023/09/14 05:25:34;;;;;;;0.00;0.00;;;14.80;99.90;;;;;;5050442;28;20744;-74
2023/09/14 05:28:00;;;;;;;0.00;0.00;;;14.80;99.90;;;;;;5050459;28;20170;-73
2023/09/14 05:30:25;;;;;;;0.00;0.00;;;14.90;99.90;;;;;;5050461;28;20192;-73
2023/09/14 05:32:51;;;;;;;0.00;0.00;;;14.90;99.90;;;;;;5049012;28;20225;-74
2023/09/14 05:35:17;;;;;;;0.00;0.00;;;14.90;99.90;;;;;;5050394;28;20212;-74
2023/09/14 05:37:42;;;;;;;0.22;0.22;;;15.00;99.90;;;;;;5051016;28;20595;-74
2023/09/14 05:40:12;;;;;;;0.00;0.00;;;15.10;99.90;;;;;;5054285;28;20181;-74
2023/09/14 05:42:38;;;;;;;0.20;0.10;;;15.20;99.90;;;;;;5054277;28;20181;-74
2023/09/14 05:45:05;;;;;;;0.00;0.00;;;15.20;99.90;;;;;;5054419;28;20669;-74
2023/09/14 05:47:31;;;;;;;0.00;0.00;;;15.20;99.90;;;;;;5054802;28;20193;-74
2023/09/14 05:49:56;;;;;;;0.00;0.00;;;15.20;99.90;;;;;;5055488;28;20188;-75
2023/09/14 05:52:23;;;;;;;0.00;0.00;;;15.20;99.90;;;;;;5054476;28;20253;-74
2023/09/14 05:54:49;;;;;;;0.00;0.00;;;15.30;99.90;;;;;;5055018;28;20181;-73
2023/09/14 05:57:14;;;;;;;0.00;0.00;;;15.30;99.90;;;;;;5053898;28;20178;-73
2023/09/14 05:59:40;;;;;;;0.00;0.00;;;15.30;99.90;;;;;;5054113;28;20675;-73
2023/09/14 06:02:06;;;;;;;0.00;0.00;;;15.40;99.90;;;;;;5053982;28;20181;-73
2023/09/14 06:04:32;;;;;;;0.00;0.00;;;15.40;99.90;;;;;;5054114;28;20181;-73
2023/09/14 06:06:58;;;;;;;0.00;0.00;;;15.50;99.90;;;;;;5053808;28;20213;-74
2023/09/14 06:09:25;;;;;;;0.00;0.00;;;15.50;99.90;;;;;;5054002;28;20174;-74
2023/09/14 06:11:51;;;;;;;0.00;0.00;;;15.60;99.90;;;;;;5054213;28;20174;-73
2023/09/14 06:14:16;;;;;;;0.00;0.00;;;15.70;99.90;;;;;;5053627;28;20173;-73
2023/09/14 06:16:42;;;;;;;0.00;0.00;;;15.70;99.90;;;;;;5053844;28;20174;-74
2023/09/14 06:19:07;;;;;;;0.17;0.17;;;15.80;99.90;;;;;;5053845;28;20256;-74
2023/09/14 06:21:34;;;;;;;0.00;0.00;;;15.90;99.90;;;;;;5053584;28;20292;-74
2023/09/14 06:24:00;;;;;;;0.00;0.00;;;16.00;99.90;;;;;;5053842;28;20180;-73
2023/09/14 06:26:29;;;;;;;0.00;0.00;;;16.10;99.90;;;;;;5053660;28;20213;-74
2023/09/14 06:28:55;;;;;;;0.00;0.00;;;16.20;99.90;;;;;;5053489;28;20178;-73
2023/09/14 06:31:22;;;;;;;0.00;0.00;;;16.30;99.90;;;;;;5053089;28;20208;-73
2023/09/14 06:33:51;;;;;;;0.00;0.00;;;16.40;99.90;;;;;;5053426;28;20717;-74
2023/09/14 06:36:18;;;;;;;0.00;0.00;;;16.50;99.90;;;;;;5053256;28;20211;-74
2023/09/14 06:38:45;;;;;;;0.00;0.00;;;16.60;99.90;;;;;;5053320;28;20544;-74
2023/09/14 06:41:12;;;;;;;0.00;0.00;;;16.60;99.90;;;;;;5053168;28;20651;-74
2023/09/14 06:43:39;;;;;;;0.00;0.00;;;16.70;99.90;;;;;;5053301;28;20633;-71
2023/09/14 06:46:04;;;;;;;0.00;0.00;;;16.80;99.90;;;;;;5053084;28;20239;-74
2023/09/14 06:48:30;;;;;;;0.00;0.00;;;16.90;99.90;;;;;;5052935;28;20611;-74
2023/09/14 06:50:55;;;;;;;0.00;0.00;;;17.00;99.90;;;;;;5051894;28;20181;-73
2023/09/14 06:53:21;;;;;;;0.00;0.00;;;17.10;99.90;;;;;;5052821;28;20177;-73
2023/09/14 06:55:46;;;;;;;0.00;0.00;;;17.20;99.90;;;;;;5052886;28;20182;-73
2023/09/14 06:58:14;;;;;;;0.00;0.00;;;17.30;99.90;;;;;;5052875;28;20170;-74
2023/09/14 07:00:39;;;;;;;0.00;0.00;;;17.40;99.90;;;;;;5052811;28;20181;-73
2023/09/14 07:03:05;;;;;;;0.00;0.00;;;17.40;99.90;;;;;;5052789;28;20707;-74
2023/09/14 07:05:32;;;;;;;0.43;0.15;;;17.30;99.90;;;;;;5052666;28;20578;-73
2023/09/14 07:07:58;;;;;;;0.00;0.00;;;17.40;99.90;;;;;;5051538;28;20184;-74
2023/09/14 07:10:24;;;;;;;0.00;0.00;;;17.40;99.90;;;;;;5052715;28;20181;-74
2023/09/14 07:12:50;;;;;;;0.00;0.00;;;17.50;99.90;;;;;;5052597;28;20166;-74
2023/09/14 07:15:15;;;;;;;0.00;0.00;;;17.50;99.90;;;;;;5052354;28;20173;-73
2023/09/14 07:17:41;;;;;;;0.00;0.00;;;17.50;99.90;;;;;;5052427;28;20539;-74
2023/09/14 07:20:08;;;;;;;0.00;0.00;;;17.60;99.90;;;;;;5052272;28;20213;-73
2023/09/14 07:22:33;;;;;;;0.00;0.00;;;17.60;99.90;;;;;;5052352;28;20190;-73
2023/09/14 07:24:59;;;;;;;0.00;0.00;;;17.60;99.90;;;;;;5052209;28;20182;-73
2023/09/14 07:27:24;;;;;;;0.00;0.00;;;17.60;99.90;;;;;;5052389;28;20182;-72
2023/09/14 07:29:50;;;;;;;0.00;0.00;;;17.70;99.90;;;;;;5052291;28;20173;-73
2023/09/14 07:32:16;;;;;;;1.88;0.10;;;17.70;99.90;;;;;;5051946;28;20236;-73
2023/09/14 07:34:41;;;;;;;0.00;0.00;;;17.70;99.90;;;;;;5052072;28;20177;-72
2023/09/14 07:37:07;;;;;;;0.00;0.00;;;17.80;99.90;;;;;;5052089;28;20173;-72
2023/09/14 07:39:33;;;;;;;0.00;0.00;;;17.90;99.90;;;;;;5052043;28;20176;-72
2023/09/14 07:41:58;;;;;;;0.00;0.00;;;17.90;99.90;;;;;;5051939;28;20184;-72
2023/09/14 07:44:24;;;;;;;0.00;0.00;;;18.00;99.90;;;;;;5052032;28;20633;-73
2023/09/14 07:46:50;;;;;;;0.00;0.00;;;18.00;99.90;;;;;;5051942;28;20687;-73
2023/09/14 07:49:15;;;;;;;0.00;0.00;;;18.00;99.90;;;;;;5051790;28;20215;-72
2023/09/14 07:51:41;;;;;;;0.00;0.00;;;18.00;99.90;;;;;;5051915;28;20572;-73
2023/09/14 07:54:06;;;;;;;0.00;0.00;;;18.10;99.90;;;;;;5051752;28;20282;-73
2023/09/14 07:56:32;;;;;;;0.00;0.00;;;18.10;99.90;;;;;;5050713;28;20675;-73
2023/09/14 07:58:57;;;;;;;0.00;0.00;;;18.20;99.90;;;;;;5051683;28;20209;-73
2023/09/14 08:01:23;;;;;;;0.00;0.00;;;18.20;99.90;;;;;;5051446;28;20174;-73
2023/09/14 08:03:49;;;;;;;0.05;0.05;;;18.20;99.90;;;;;;5051725;28;20543;-73
2023/09/14 08:06:19;;;;;;;0.00;0.00;;;18.30;99.90;;;;;;5051402;28;20221;-73
2023/09/14 08:08:45;;;;;;;0.00;0.00;;;18.30;99.90;;;;;;5051764;28;20165;-74
2023/09/14 08:11:11;;;;;;;0.00;0.00;;;18.50;99.90;;;;;;5051610;28;20173;-74
2023/09/14 08:13:37;;;;;;;0.00;0.00;;;18.50;99.90;;;;;;5051554;28;20730;-74
2023/09/14 08:16:06;;;;;;;0.00;0.00;;;18.60;99.90;;;;;;5051501;28;20205;-75
2023/09/14 08:18:32;;;;;;;0.00;0.00;;;18.70;99.90;;;;;;5051655;28;20203;-74
2023/09/14 08:20:58;;;;;;;0.00;0.00;;;18.70;99.90;;;;;;5051448;28;20587;-74
2023/09/14 08:23:23;;;;;;;0.00;0.00;;;18.80;99.90;;;;;;5051608;28;20253;-75
2023/09/14 08:25:49;;;;;;;0.00;0.00;;;18.90;99.90;;;;;;5051421;28;20300;-75
2023/09/14 08:28:19;;;;;;;0.00;0.00;;;19.00;99.90;;;;;;5051369;28;20535;-75
2023/09/14 08:30:45;;;;;;;0.00;0.00;;;19.20;99.90;;;;;;5049957;28;20739;-75
2023/09/14 08:33:11;;;;;;;0.00;0.00;;;19.30;99.90;;;;;;5051251;28;20246;-75
2023/09/14 08:35:37;;;;;;;0.00;0.00;;;19.40;99.90;;;;;;5051240;28;20169;-75
2023/09/14 08:38:06;;;;;;;0.00;0.00;;;19.60;99.90;;;;;;5051264;28;20208;-75
2023/09/14 08:40:33;;;;;;;0.00;0.00;;;19.80;99.90;;;;;;5051340;28;20170;-76
2023/09/14 08:43:00;;;;;;;0.00;0.00;;;20.00;99.90;;;;;;5051258;28;20177;-75
2023/09/14 08:45:28;;;;;;;0.00;0.00;;;20.20;99.90;;;;;;5051379;28;20209;-76
2023/09/14 08:47:55;;;;;;;0.00;0.00;;;20.30;99.90;;;;;;5051094;28;20196;-75
2023/09/14 08:50:26;;;;;;;0.00;0.00;;;20.40;99.90;;;;;;5051553;28;20204;-76
2023/09/14 08:52:52;;;;;;;0.00;0.00;;;20.50;99.90;;;;;;5051243;28;20173;-74
2023/09/14 08:55:19;;;;;;;0.00;0.00;;;20.60;99.90;;;;;;5051113;28;20264;-76
2023/09/14 08:57:46;;;;;;;0.00;0.00;;;20.80;99.90;;;;;;5051244;28;20267;-75
2023/09/14 09:00:15;;;;;;;0.00;0.00;;;20.80;99.90;;;;;;5051209;28;20177;-74
2023/09/14 09:02:59;;;;;;;0.00;0.00;;;21.00;99.90;;;;;;5051316;28;20181;-75
2023/09/14 09:05:26;;;;;;;0.00;0.00;;;21.20;99.90;;;;;;5051102;28;20205;-75
2023/09/14 09:07:54;;;;;;;0.00;0.00;;;21.40;99.90;;;;;;5051199;28;20174;-73
2023/09/14 09:10:24;;;;;;;0.00;0.00;;;21.50;99.90;;;;;;5051018;28;20637;-75
2023/09/14 09:12:51;;;;;;;0.00;0.00;;;21.70;99.90;;;;;;5051981;28;20169;-75
2023/09/14 09:15:17;;;;;;;0.00;0.00;;;21.90;99.90;;;;;;5054761;28;20272;-75
2023/09/14 09:17:44;;;;;;;0.10;0.10;;;22.10;99.90;;;;;;5054820;28;20609;-75
2023/09/14 09:20:24;;;;;;;0.00;0.00;;;22.20;99.90;;;;;;5054812;28;20165;-75
2023/09/14 09:22:51;;;;;;;0.00;0.00;;;22.40;99.90;;;;;;5054768;28;20641;-75
2023/09/14 09:25:21;;;;;;;0.00;0.00;;;22.50;99.90;;;;;;5054537;28;20580;-75
2023/09/14 09:27:47;;;;;;;0.00;0.00;;;22.60;99.90;;;;;;5054621;28;20629;-75
2023/09/14 09:30:13;;;;;;;0.00;0.00;;;22.70;99.90;;;;;;5054673;28;20192;-75
2023/09/14 09:32:42;;;;;;;0.00;0.00;;;22.80;99.90;;;;;;5054519;28;20775;-75
2023/09/14 09:35:22;;;;;;;0.00;0.00;;;22.90;99.90;;;;;;5054439;28;20181;-75
2023/09/14 09:37:49;;;;;;;0.00;0.00;;;22.90;99.90;;;;;;5054921;28;20271;-75
2023/09/14 09:40:16;;;;;;;0.00;0.00;;;22.90;99.90;;;;;;5054734;28;20257;-76
2023/09/14 09:42:42;;;;;;;0.00;0.00;;;22.90;99.90;;;;;;5053363;28;20201;-75
2023/09/14 09:45:09;;;;;;;0.00;0.00;;;22.90;99.90;;;;;;5054593;28;20252;-75
2023/09/14 09:47:36;;;;;;;0.00;0.00;;;23.10;99.90;;;;;;5054497;28;20672;-75
2023/09/14 09:50:05;;;;;;;0.00;0.00;;;23.30;99.70;;;;;;5054527;28;20209;-75
2023/09/14 09:52:32;;;;;;;0.00;0.00;;;23.30;99.90;;;;;;5054540;28;20276;-76
2023/09/14 09:54:58;;;;;;;0.00;0.00;;;23.70;99.90;;;;;;5052975;28;20228;-75
2023/09/14 09:57:32;;;;;;;0.00;0.00;;;24.20;99.90;;;;;;5054269;28;20653;-75
2023/09/14 09:59:58;;;;;;;0.00;0.00;;;24.60;99.30;;;;;;5054224;28;20632;-75
2023/09/14 10:02:34;;;;;;;0.10;0.10;;;24.90;98.50;;;;;;5054551;28;20184;-76
2023/09/14 10:05:00;;;;;;;0.10;0.10;;;24.90;97.00;;;;;;5053995;28;20218;-76
2023/09/14 10:07:25;;;;;;;0.00;0.00;;;25.20;97.10;;;;;;5054239;28;20220;-75
2023/09/14 10:09:54;;;;;;;0.00;0.00;;;25.40;97.20;;;;;;5054198;28;20205;-75
2023/09/14 10:12:24;;;;;;;0.00;0.00;;;25.50;95.60;;;;;;5054313;28;20181;-75
2023/09/14 10:14:53;;;;;;;0.00;0.00;;;25.30;95.20;;;;;;5054110;28;20428;-74
2023/09/14 10:17:22;;;;;;;0.00;0.00;;;25.10;94.80;;;;;;5054045;28;20174;-74
2023/09/14 10:19:49;;;;;;;0.00;0.00;;;25.10;95.30;;;;;;5053927;28;20219;-75
2023/09/14 10:22:16;;;;;;;0.13;0.13;;;25.00;95.60;;;;;;5053585;28;20188;-76
2023/09/14 10:24:43;;;;;;;0.10;0.10;;;24.90;95.70;;;;;;5053481;28;20259;-76
2023/09/14 10:27:10;;;;;;;0.00;0.00;;;24.80;95.80;;;;;;5053421;28;20311;-75
2023/09/14 10:29:42;;;;;;;0.00;0.00;;;24.80;95.80;;;;;;5053458;28;20196;-75
2023/09/14 10:32:11;;;;;;;0.00;0.00;;;24.70;95.90;;;;;;5053158;28;20233;-75
2023/09/14 10:34:38;;;;;;;0.00;0.00;;;24.70;95.60;;;;;;5053151;28;20293;-75
2023/09/14 10:37:04;;;;;;;0.00;0.00;;;24.60;95.70;;;;;;5053251;28;20253;-74
2023/09/14 10:39:30;;;;;;;0.08;0.08;;;24.40;95.40;;;;;;5053114;28;20194;-74
2023/09/14 10:41:56;;;;;;;0.10;0.10;;;24.10;96.00;;;;;;5053040;28;20658;-74
2023/09/14 10:44:22;;;;;;;0.00;0.00;;;23.90;96.10;;;;;;5053128;28;20173;-74
2023/09/14 10:46:52;;;;;;;0.00;0.00;;;23.80;96.50;;;;;;5053019;28;20624;-75
2023/09/14 10:49:22;;;;;;;0.00;0.00;;;23.50;97.00;;;;;;5052796;28;20257;-75
2023/09/14 10:51:48;;;;;;;0.08;0.08;;;23.80;97.20;;;;;;5053113;28;20567;-75
2023/09/14 10:54:14;;;;;;;0.00;0.00;;;24.10;97.50;;;;;;5052569;28;20779;-74
2023/09/14 10:56:40;;;;;;;0.00;0.00;;;24.50;96.20;;;;;;5052866;28;20185;-75
2023/09/14 10:59:09;;;;;;;0.45;0.45;;;24.90;96.60;;;;;;5052539;28;20178;-75
2023/09/14 11:01:48;;;;;;;0.00;0.00;;;25.10;96.20;;;;;;5052613;28;20262;-75
2023/09/14 11:04:17;;;;;;;0.00;0.00;;;25.60;95.40;;;;;;5052580;28;20215;-75
2023/09/14 11:06:44;;;;;;;0.00;0.00;;;26.20;94.00;;;;;;5052540;28;20213;-76
2023/09/14 11:09:10;;;;;;;0.03;0.03;;;26.60;92.60;;;;;;5052646;28;20182;-75
2023/09/14 11:11:38;;;;;;;0.00;0.00;;;26.80;92.30;;;;;;5052677;28;20300;-75
2023/09/14 11:14:08;;;;;;;0.00;0.00;;;26.90;92.00;;;;;;5052588;28;20177;-74
2023/09/14 11:16:41;;;;;;;0.25;0.25;;;26.80;92.20;;;;;;5052489;28;20537;-75
2023/09/14 11:19:07;;;;;;;0.00;0.00;;;26.80;91.30;;;;;;5052555;28;20505;-76
2023/09/14 11:21:32;;;;;;;0.00;0.00;;;26.90;91.30;;;;;;5052737;28;20183;-75
2023/09/14 11:23:59;;;;;;;0.00;0.00;;;26.60;91.20;;;;;;5052487;28;20178;-75
2023/09/14 11:26:39;;;;;;;0.00;0.00;;;26.50;91.70;;;;;;5052531;28;20209;-76
2023/09/14 11:29:05;;;;;;;0.00;0.00;;;26.40;91.00;;;;;;5052476;28;20312;-75
2023/09/14 11:31:35;;;;;;;0.00;0.00;;;26.20;91.90;;;;;;5052445;28;20613;-75
2023/09/14 11:34:07;;;;;;;0.00;0.00;;;26.30;91.30;;;;;;5052349;28;20191;-76
2023/09/14 11:36:34;;;;;;;0.00;0.00;;;26.50;91.10;;;;;;5051780;28;20223;-76
2023/09/14 11:39:09;;;;;;;0.10;0.10;;;26.70;90.50;;;;;;5052150;28;20172;-75
2023/09/14 11:41:40;;;;;;;0.00;0.00;;;26.70;90.40;;;;;;5052379;28;20180;-75
2023/09/14 11:44:06;;;;;;;0.00;0.00;;;26.40;90.90;;;;;;5052077;28;20170;-75
2023/09/14 11:46:35;;;;;;;0.00;0.00;;;26.10;89.70;;;;;;5052099;28;20311;-75
2023/09/14 11:49:02;;;;;;;0.00;0.00;;;25.80;90.00;;;;;;5052066;28;20169;-74
2023/09/14 11:51:28;;;;;;;0.10;0.10;;;25.50;90.60;;;;;;5052099;28;20177;-75
2023/09/14 11:53:59;;;;;;;0.00;0.00;;;25.30;91.10;;;;;;5051819;28;20181;-74
2023/09/14 11:56:26;;;;;;;0.00;0.00;;;25.10;91.50;;;;;;5052113;28;20264;-75
2023/09/14 11:58:51;;;;;;;0.00;0.00;;;25.10;91.50;;;;;;5052003;28;20181;-74
2023/09/14 12:01:18;;;;;;;0.00;0.00;;;25.20;90.80;;;;;;5051911;28;20264;-75
2023/09/14 12:03:44;;;;;;;0.00;0.00;;;25.30;90.70;;;;;;5050661;28;20184;-75
2023/09/14 12:06:09;;;;;;;0.00;0.00;;;25.60;90.40;;;;;;5051605;28;20209;-75
2023/09/14 12:08:35;;;;;;;0.00;0.00;;;25.80;90.10;;;;;;5051659;28;20185;-75
2023/09/14 12:11:01;;;;;;;0.00;0.00;;;26.00;88.40;;;;;;5050553;28;20201;-75
2023/09/14 12:13:26;;;;;;;0.00;0.00;;;26.10;88.20;;;;;;5051679;28;20522;-75
2023/09/14 12:16:00;;;;;;;0.00;0.00;;;26.20;87.50;;;;;;5051879;28;20178;-75
2023/09/14 12:18:43;;;;;;;0.00;0.00;;;26.30;87.60;;;;;;5051596;28;20173;-75
2023/09/14 12:21:09;;;;;;;0.00;0.00;;;26.40;86.70;;;;;;5051543;28;20208;-76
2023/09/14 12:23:40;;;;;;;0.00;0.00;;;26.40;86.80;;;;;;5051665;28;20177;-75
2023/09/14 12:26:12;;;;;;;0.00;0.00;;;26.30;88.00;;;;;;5051683;28;20217;-75
2023/09/14 12:28:39;;;;;;;0.00;0.00;;;26.20;87.10;;;;;;5051547;28;20758;-75
2023/09/14 12:31:07;;;;;;;0.00;0.00;;;26.30;86.90;;;;;;5051545;28;20217;-76
2023/09/14 12:33:32;;;;;;;0.00;0.00;;;26.30;87.70;;;;;;5051876;28;20533;-75
2023/09/14 12:35:58;;;;;;;0.00;0.00;;;26.30;87.10;;;;;;5051592;28;20208;-75
2023/09/14 12:38:24;;;;;;;0.00;0.00;;;26.20;86.50;;;;;;5051606;28;20200;-76
2023/09/14 12:40:50;;;;;;;0.15;0.15;;;26.00;86.40;;;;;;5051292;28;20264;-75
2023/09/14 12:43:17;;;;;;;0.00;0.00;;;26.00;87.30;;;;;;5051219;28;20590;-75
2023/09/14 12:45:43;;;;;;;0.00;0.00;;;26.10;86.70;;;;;;5051039;28;20220;-75